Time;durP1;ratioP1;P1;durP2;ratioP2;P2;SDS_P1;SDS_P2;PMS_P1;PMS_P2;Temp;Humidity;BMP_temperature;BMP_pressure;BME280_temperature;BME280_humidity;BME280_pressure;Samples;Min_cycle;Max_cycle;Signal;HPM_P1;HPM_P2
2023/08/05 00:09:01;;;;;;;18.60;11.90;;;;;;;19.50;73.76;98247.91;436298;1251;107995;-41
2023/08/05 00:19:08;;;;;;;19.00;11.80;;;;;;;19.44;73.81;98230.64;436414;1248;97503;-41
2023/08/05 00:39:21;;;;;;;18.70;12.20;;;;;;;19.38;74.51;98240.13;436398;1251;97731;-41
2023/08/05 00:49:29;;;;;;;17.30;11.40;;;;;;;19.32;74.44;98232.14;436394;1251;110926;-41
2023/08/05 00:59:37;;;;;;;20.50;12.30;;;;;;;19.26;74.68;98225.44;436278;1262;107192;-41
2023/08/05 01:09:44;;;;;;;19.90;12.60;;;;;;;19.29;74.90;98214.44;436114;1251;97922;-41
2023/08/05 01:19:51;;;;;;;19.30;12.60;;;;;;;19.14;74.96;98185.55;436377;1247;108484;-43
2023/08/05 01:29:58;;;;;;;15.60;10.80;;;;;;;19.05;75.10;98183.52;436370;1251;97905;-42
2023/08/05 01:40:28;;;;;;;21.50;10.60;;;;;;;19.02;75.39;98186.25;436699;1241;109804;31
2023/08/05 01:50:36;;;;;;;25.70;10.80;;;;;;;19.13;75.58;98184.02;435490;1256;107702;-40
2023/08/05 02:00:49;;;;;;;16.10;10.70;;;;;;;19.10;75.72;98196.68;435362;1254;96632;-41
2023/08/05 02:10:57;;;;;;;22.50;10.90;;;;;;;19.03;75.75;98176.55;435406;1256;111170;-41
2023/08/05 02:31:10;;;;;;;13.90;8.50;;;;;;;18.92;76.27;98167.29;435264;1253;97474;-42
2023/08/05 02:41:17;;;;;;;18.10;8.70;;;;;;;18.98;76.36;98175.98;435188;1264;108263;-41
2023/08/05 02:51:24;;;;;;;14.30;10.10;;;;;;;18.99;76.41;98169.21;435376;1252;97855;-40
2023/08/05 03:11:37;;;;;;;19.00;8.90;;;;;;;18.87;76.38;98151.74;435209;1256;107600;-42
2023/08/05 03:21:44;;;;;;;17.20;7.00;;;;;;;18.79;76.38;98141.83;435251;1257;97874;-41
2023/08/05 03:31:50;;;;;;;16.40;7.00;;;;;;;18.69;76.62;98119.02;435127;1264;108696;-41
2023/08/05 03:41:58;;;;;;;23.30;7.40;;;;;;;18.59;76.78;98144.00;434941;1253;97881;-43
2023/08/05 03:52:04;;;;;;;24.10;8.70;;;;;;;18.63;77.02;98162.76;435343;1251;110654;-42
2023/08/05 04:02:11;;;;;;;13.90;6.80;;;;;;;18.57;77.09;98156.56;435231;1256;107845;-42
2023/08/05 04:12:18;;;;;;;20.90;7.00;;;;;;;18.52;77.14;98160.02;435308;1256;98520;-42
2023/08/05 04:22:26;;;;;;;20.10;7.20;;;;;;;18.47;77.30;98158.45;435198;1257;108664;-42
2023/08/05 04:32:32;;;;;;;19.00;6.90;;;;;;;18.33;77.41;98161.77;435214;1265;96645;-43
2023/08/05 04:52:45;;;;;;;15.50;6.70;;;;;;;18.29;77.88;98149.41;435302;1256;108335;-41
2023/08/05 05:02:53;;;;;;;13.50;7.00;;;;;;;18.14;78.08;98141.29;435232;1256;96639;-42
2023/08/05 05:13:01;;;;;;;24.60;7.30;;;;;;;17.98;78.33;98170.61;435218;1256;107420;-43
2023/08/05 05:23:08;;;;;;;19.80;7.40;;;;;;;18.13;78.95;98198.08;435223;1254;97902;-42
2023/08/05 05:33:13;;;;;;;15.10;6.30;;;;;;;18.27;78.97;98193.83;435111;1265;111569;-43
2023/08/05 05:43:19;;;;;;;12.80;6.80;;;;;;;18.29;79.03;98196.67;435302;1257;108607;-42
2023/08/05 05:53:24;;;;;;;13.90;7.20;;;;;;;18.25;79.37;98199.21;435295;1254;97487;-43
2023/08/05 06:03:34;;;;;;;10.20;7.00;;;;;;;18.14;79.34;98202.94;435210;1258;109445;-42
2023/08/05 06:13:40;;;;;;;11.20;5.10;;;;;;;17.85;80.34;98160.91;435186;1251;97903;-43
2023/08/05 06:23:48;;;;;;;23.50;8.40;;;;;;;17.59;82.19;98139.67;435261;1252;110686;-42
2023/08/05 06:44:01;;;;;;;12.90;5.40;;;;;;;17.60;82.31;98147.73;435248;1251;97747;-43
2023/08/05 07:14:18;;;;;;;15.60;4.50;;;;;;;17.62;83.11;98131.49;435299;1253;111423;-42
2023/08/05 07:24:26;;;;;;;5.90;3.80;;;;;;;17.80;83.16;98074.52;435090;1257;108018;-41
2023/08/05 07:34:33;;;;;;;6.80;3.70;;;;;;;18.05;83.46;98009.48;435042;1251;97880;-43
2023/08/05 07:44:42;;;;;;;4.80;3.00;;;;;;;18.33;83.01;98049.55;435024;1257;109202;-43
2023/08/05 07:54:49;;;;;;;6.80;3.40;;;;;;;18.32;83.51;97991.02;435205;1258;97973;-41
2023/08/05 08:15:01;;;;;;;4.10;2.70;;;;;;;18.55;84.24;97979.64;435191;1251;107635;-43
2023/08/05 08:35:11;;;;;;;6.30;3.30;;;;;;;18.87;84.24;97956.20;435331;1255;107717;-42
2023/08/05 08:45:25;;;;;;;3.90;2.90;;;;;;;19.28;84.01;97984.81;435175;1251;97902;-46
2023/08/05 08:55:31;;;;;;;5.00;3.00;;;;;;;19.48;83.48;98004.53;435196;1251;109853;-42
2023/08/05 09:05:37;;;;;;;5.10;3.20;;;;;;;19.42;83.48;98037.20;435215;1256;107551;-42
2023/08/05 09:15:43;;;;;;;5.40;3.40;;;;;;;19.72;83.18;98052.77;435174;1251;98543;-42
2023/08/05 09:36:08;;;;;;;5.20;2.70;;;;;;;19.23;82.92;98055.04;435268;1251;97887;-41
2023/08/05 09:46:18;;;;;;;3.70;1.90;;;;;;;19.49;82.91;98041.56;435327;1257;111758;-42
2023/08/05 09:56:26;;;;;;;2.10;1.60;;;;;;;19.92;82.41;98013.94;435145;1257;106658;-43
2023/08/05 10:06:37;;;;;;;4.70;2.00;;;;;;;19.77;81.02;98012.10;435210;1251;97516;-42
2023/08/05 10:16:44;;;;;;;3.40;2.00;;;;;;;19.58;80.22;98010.69;435325;1256;107706;-41
2023/08/05 10:26:52;;;;;;;4.40;1.80;;;;;;;19.49;80.15;98012.98;435215;1251;96652;-42
2023/08/05 10:36:59;;;;;;;2.90;1.50;;;;;;;19.23;79.70;98007.11;435335;1256;110517;-43
2023/08/05 10:47:05;;;;;;;5.10;2.00;;;;;;;19.33;79.78;97989.30;435122;1256;108608;-42
2023/08/05 11:17:59;;;;;;;3.00;1.90;;;;;;;19.63;79.14;97948.01;435326;1258;97880;-43
2023/08/05 11:38:16;;;;;;;6.30;1.90;;;;;;;19.81;78.91;97946.80;435153;1251;107691;-42
2023/08/05 11:58:35;;;;;;;7.00;2.40;;;;;;;19.89;78.62;97928.73;435178;1255;108373;-42
2023/08/05 12:18:50;;;;;;;3.70;3.20;;;;;;;19.98;78.96;97911.92;435391;1256;110102;-42
2023/08/05 12:28:57;;;;;;;5.90;3.10;;;;;;;20.23;78.49;97904.11;434872;1252;364867;-42
2023/08/05 12:59:20;;;;;;;5.70;3.10;;;;;;;20.38;78.50;97870.86;435220;1256;97890;-42
2023/08/05 13:09:29;;;;;;;6.60;3.30;;;;;;;20.67;78.22;97872.81;435246;1251;108670;-42
2023/08/05 13:19:37;;;;;;;5.00;3.40;;;;;;;20.81;77.99;97853.19;435264;1251;107499;-43
2023/08/05 13:39:49;;;;;;;4.70;3.10;;;;;;;20.52;77.59;97848.04;435941;1256;108448;-42
2023/08/05 13:49:57;;;;;;;5.90;3.30;;;;;;;20.34;77.76;97842.58;436463;1256;97890;-43
2023/08/05 14:10:09;;;;;;;7.80;4.10;;;;;;;20.03;78.43;97854.64;435266;1252;108694;-42
2023/08/05 14:30:21;;;;;;;5.40;4.40;;;;;;;19.76;79.21;97856.77;435052;1251;108550;-42
2023/08/05 14:40:37;;;;;;;6.90;4.60;;;;;;;19.74;79.38;97838.73;435243;1256;97473;-45
2023/08/05 14:50:45;;;;;;;9.60;4.10;;;;;;;19.73;79.48;97832.17;435105;1251;110141;-42
2023/08/05 15:00:49;;;;;;;5.10;4.30;;;;;;;19.68;79.69;97849.77;435187;1251;109482;-44
2023/08/05 15:10:58;;;;;;;6.10;4.00;;;;;;;19.57;80.17;97838.23;435263;1253;97210;-42
2023/08/05 15:21:05;;;;;;;6.30;3.90;;;;;;;19.49;80.47;97828.92;435115;1256;108324;-42
2023/08/05 15:31:19;;;;;;;5.70;3.30;;;;;;;19.40;80.82;97824.64;435265;1256;97890;-42
2023/08/05 15:41:25;;;;;;;4.90;3.60;;;;;;;19.40;80.96;97823.91;435029;1253;109751;-43
2023/08/05 15:51:34;;;;;;;6.30;4.90;;;;;;;19.46;80.90;97809.38;435143;1256;109245;-42
2023/08/05 16:01:39;;;;;;;8.40;5.30;;;;;;;19.37;81.13;97806.54;435119;1251;98002;-42
2023/08/05 16:11:47;;;;;;;8.60;6.20;;;;;;;19.34;81.61;97798.52;435305;1256;107870;-41
2023/08/05 16:21:54;;;;;;;9.80;6.30;;;;;;;19.24;82.04;97783.55;435209;1256;97893;-42
2023/08/05 16:31:59;;;;;;;7.70;6.30;;;;;;;19.17;82.54;97783.46;435203;1251;113036;-42
2023/08/05 16:52:08;;;;;;;10.40;8.50;;;;;;;18.90;84.00;97781.90;435252;1251;98002;-42
2023/08/05 17:02:15;;;;;;;7.70;6.80;;;;;;;18.82;84.34;97790.66;435186;1256;108843;-42
2023/08/05 17:22:28;;;;;;;9.90;7.50;;;;;;;18.77;84.61;97780.67;435236;1264;110527;-42
2023/08/05 17:32:36;;;;;;;17.50;7.20;;;;;;;18.71;84.93;97789.44;435071;1256;109407;-42
2023/08/05 17:42:43;;;;;;;11.00;7.00;;;;;;;18.61;85.07;97788.98;435259;1251;97881;-42
2023/08/05 17:52:49;;;;;;;11.10;7.30;;;;;;;18.51;85.29;97777.11;435241;1256;108654;-42
2023/08/05 18:02:56;;;;;;;13.30;8.00;;;;;;;18.51;85.68;97780.92;435034;1253;97904;-42
2023/08/05 18:13:04;;;;;;;11.90;7.30;;;;;;;18.41;85.79;97755.20;435236;1256;109404;-42
2023/08/05 18:23:10;;;;;;;;;;;;;;;18.30;86.24;97747.48;435200;1253;106891;-41
2023/08/05 18:33:18;;;;;;;15.90;9.90;;;;;;;18.26;86.69;97736.77;435292;1253;97870;-42
2023/08/05 18:43:25;;;;;;;16.40;10.40;;;;;;;18.23;86.72;97735.66;435232;1256;108785;-42
2023/08/05 19:03:38;;;;;;;20.00;12.80;;;;;;;18.25;87.37;97730.53;434979;1255;110088;-41
2023/08/05 19:13:44;;;;;;;22.40;14.00;;;;;;;18.15;87.59;97711.51;435305;1254;110047;-42
2023/08/05 19:23:51;;;;;;;25.00;16.40;;;;;;;18.13;87.94;97675.98;435235;1253;97470;-42
2023/08/05 19:44:01;;;;;;;38.50;17.20;;;;;;;18.06;89.01;97678.70;435150;1256;97900;-42
2023/08/05 20:04:18;;;;;;;38.50;18.60;;;;;;;18.13;89.22;97641.59;435119;1265;108511;-41
2023/08/05 20:14:27;;;;;;;31.00;18.60;;;;;;;18.10;89.64;97662.30;435251;1264;97958;-43
2023/08/05 20:24:34;;;;;;;34.60;18.00;;;;;;;18.14;89.92;97687.98;435157;1256;107345;-43
2023/08/05 20:34:43;;;;;;;34.70;17.30;;;;;;;18.29;89.95;97694.77;435192;1256;97925;-40
2023/08/05 20:44:52;;;;;;;30.40;18.20;;;;;;;18.33;89.64;97681.73;435290;1252;110783;-41
2023/08/05 21:05:06;;;;;;;36.80;19.30;;;;;;;18.32;89.86;97621.65;435171;1255;97913;-40
2023/08/05 21:15:13;;;;;;;37.50;19.00;;;;;;;18.37;89.91;97603.17;435265;1253;108313;-40
2023/08/05 21:25:20;;;;;;;30.20;18.20;;;;;;;18.39;89.88;97605.20;434999;1256;97909;-40
2023/08/05 21:35:29;;;;;;;32.30;19.90;;;;;;;18.35;89.81;97589.19;435213;1253;110367;-41
2023/08/05 21:45:35;;;;;;;28.30;19.60;;;;;;;18.29;89.95;97577.95;435359;1256;107809;-41
2023/08/05 22:15:53;;;;;;;20.40;14.50;;;;;;;18.06;90.90;97453.38;435246;1256;97876;-41
2023/08/05 22:26:05;;;;;;;25.50;17.90;;;;;;;18.04;91.20;97462.71;435399;1256;110907;-42
2023/08/05 22:46:16;;;;;;;42.90;25.40;;;;;;;17.94;91.98;97419.16;435084;1256;97230;-42
2023/08/05 22:56:25;;;;;;;39.60;25.70;;;;;;;17.85;92.91;97441.17;435215;1264;108702;-41
2023/08/05 23:06:31;;;;;;;36.00;25.70;;;;;;;17.86;93.16;97480.02;435117;1257;97903;-42
2023/08/05 23:16:41;;;;;;;39.90;24.40;;;;;;;17.78;94.53;97464.38;435209;1256;110825;-43
2023/08/05 23:26:48;;;;;;;45.80;25.70;;;;;;;17.76;94.87;97469.09;435363;1256;108298;-42
2023/08/05 23:47:02;;;;;;;50.90;25.20;;;;;;;17.78;95.82;97472.37;435243;1256;108256;-41
2023/08/05 23:57:12;;;;;;;45.00;24.50;;;;;;;17.83;95.97;97470.85;435263;1256;98066;-42
